Lake Havasu City, AZ

3:23 PM MST on May 24, 2015 (GMT -0700)
Laughlin-Bullhead International | | Change Station
CLOSE
Current Station
Airport
Location: Bullhead City,
Elevation: 696 ft
Nearby Weather Stations

Elev 696 ft 35.16 °N, 114.56 °W | Updated 8 minutes ago

Clear
Clear
86 °F
Feels Like 86 °F
N
4
Wind Variable Wind from SSW

Today
High -- | Low -- °F
--% Chance of Precip.
Yesterday
High -- | Low -- °F
Precip. -- in
5:29 AM 7:39 PM
Waxing Crescent, 42% visible
Pressure 29.78 in
Visibility 10.0 miles
Clouds Few 7500 ft
Dew Point 41 °F
Humidity 20%
Rainfall 0.00 in
Snow Depth Not available.
UV 8 out of 12
Pollen 5.40 out of 12
Air Quality Not available.
Flu Activity Local Activity
METAR KIFP 242215Z AUTO 20003KT 10SM FEW075 30/05 A2978 RMK AO2

More Conditions Fewer Conditions

Pressure 29.78 in
Visibility 10.0 miles
Clouds Few 7500 ft
Dew Point 41 °F
Humidity 20%
Rainfall 0.00 in
Snow Depth Not available.
UV 8 out of 12
Pollen 5.40 out of 12
Air Quality Not available.
Flu Activity Local Activity
METAR KIFP 242215Z AUTO 20003KT 10SM FEW075 30/05 A2978 RMK AO2

More Conditions Fewer Conditions

10-Day Weather Forecast

Almanac

Astronomy

May. 24, 2015 Rise Set
Actual Time
Civil Twilight
Nautical Twilight
Astronomical Twilight
Moon
Length of Visible Light
Length of Day
Tomorrow will be .
, % of the Moon is Illuminated

Today's Extremes

State Highs State Lows

Community

WunderPhotos

Upload Photos

1,823,877 photos uploaded!

WunderBlogs® & News

Nearby

Air Quality

  Air Quality AQ Index Pollutant
Not available.

Snow Depth

Station Depth Elevation

Earthquake Activity

City Distance Mag. Time & Date
Minimum magnitude displayed is 2.5.

Coastal Water Temperatures

Place Temperature

Stations

Nearby Weather Stations

Station Location Temp. Windchill Dew Point Humidity Wind Precip. Elev Updated Type